Time;durP1;ratioP1;P1;durP2;ratioP2;P2;SDS_P1;SDS_P2;PMS_P1;PMS_P2;Temp;Humidity;BMP_temperature;BMP_pressure;BME280_temperature;BME280_humidity;BME280_pressure;Samples;Min_cycle;Max_cycle;Signal;HPM_P1;HPM_P2
2023/01/19 00:02:24;;;;;;;13.98;2.22;;;5.60;99.90;;;;;;5046805;28;20475;-62
2023/01/19 00:04:50;;;;;;;15.70;1.88;;;5.90;99.90;;;;;;5015618;28;20089;-62
2023/01/19 00:07:16;;;;;;;11.32;2.40;;;6.10;99.90;;;;;;5050276;28;20382;-61
2023/01/19 00:09:41;;;;;;;12.40;2.38;;;6.50;1.00;;;;;;5051424;28;20087;-61
2023/01/19 00:12:07;;;;;;;14.35;1.88;;;6.30;20.00;;;;;;5046315;28;20128;-62
2023/01/19 00:14:33;;;;;;;10.60;1.75;;;6.50;59.90;;;;;;5050719;28;20033;-61
2023/01/19 00:17:00;;;;;;;10.93;1.83;;;6.80;88.00;;;;;;5037603;28;20064;-61
2023/01/19 00:19:26;;;;;;;7.63;1.65;;;6.90;81.80;;;;;;5032920;28;20045;-62
2023/01/19 00:21:52;;;;;;;12.20;1.90;;;6.70;48.80;;;;;;5043187;28;20044;-61
2023/01/19 00:24:18;;;;;;;11.68;2.20;;;6.80;29.40;;;;;;5049611;28;20032;-62
2023/01/19 00:26:43;;;;;;;16.30;2.20;;;6.30;32.30;;;;;;5039340;28;20076;-62
2023/01/19 00:29:10;;;;;;;10.70;2.00;;;6.50;73.60;;;;;;5031561;28;20222;-62
2023/01/19 00:31:36;;;;;;;11.23;1.77;;;6.80;99.90;;;;;;5040412;28;20040;-61
2023/01/19 00:34:02;;;;;;;11.05;1.90;;;6.70;99.90;;;;;;5051018;28;20049;-61
2023/01/19 00:36:28;;;;;;;10.05;1.65;;;6.30;99.90;;;;;;5051663;28;20063;-62
2023/01/19 00:38:53;;;;;;;7.97;2.08;;;6.70;99.90;;;;;;5052331;28;20052;-62
2023/01/19 00:42:38;;;;;;;14.45;2.10;;;6.60;99.90;;;;;;5052102;28;20116;-61
2023/01/19 00:44:04;;;;;;;14.20;2.53;;;6.40;99.90;;;;;;5050542;28;20046;-62
2023/01/19 00:46:30;;;;;;;11.45;2.00;;;6.80;99.90;;;;;;5051546;28;20045;-62
2023/01/19 00:48:56;;;;;;;11.75;2.25;;;6.90;1.00;;;;;;5052404;28;20542;-62
2023/01/19 00:51:21;;;;;;;11.20;2.00;;;6.80;1.00;;;;;;5052331;28;20379;-62
2023/01/19 00:53:47;;;;;;;15.88;2.63;;;6.90;1.00;;;;;;5048167;28;20456;-62
2023/01/19 00:56:12;;;;;;;11.02;1.90;;;7.00;1.00;;;;;;5046272;28;20040;-62
2023/01/19 00:58:38;;;;;;;10.18;2.15;;;7.00;1.00;;;;;;5047813;28;20087;-62
2023/01/19 01:01:04;;;;;;;12.65;2.20;;;6.70;15.20;;;;;;5052221;28;20040;-62
2023/01/19 01:03:31;;;;;;;9.77;2.20;;;6.60;38.40;;;;;;5051391;28;20037;-62
2023/01/19 01:05:56;;;;;;;13.73;2.30;;;6.60;66.70;;;;;;5044935;28;20107;-62
2023/01/19 01:08:22;;;;;;;8.32;1.50;;;7.10;97.90;;;;;;5042777;28;20480;-62
2023/01/19 01:10:47;;;;;;;10.23;2.13;;;7.00;99.90;;;;;;5051934;28;20044;-62
2023/01/19 01:13:13;;;;;;;15.98;2.20;;;7.10;98.70;;;;;;5052113;28;20037;-62
2023/01/19 01:15:38;;;;;;;11.05;1.90;;;6.70;89.70;;;;;;5051186;28;20049;-63
2023/01/19 01:18:04;;;;;;;7.97;1.95;;;6.70;20.60;;;;;;5030057;28;20486;-63
2023/01/19 01:20:32;;;;;;;8.75;1.67;;;6.90;1.00;;;;;;5046814;28;20462;-62
2023/01/19 01:22:58;;;;;;;5.28;1.33;;;6.80;1.00;;;;;;5050313;28;20041;-62
2023/01/19 01:25:26;;;;;;;6.95;1.83;;;6.90;99.90;;;;;;5049520;28;20040;-62
2023/01/19 01:27:53;;;;;;;10.18;1.65;;;6.90;99.90;;;;;;5050850;28;20048;-62
2023/01/19 01:30:19;;;;;;;9.57;1.70;;;6.90;99.90;;;;;;5051189;28;20047;-62
2023/01/19 01:32:45;;;;;;;7.45;1.80;;;6.80;99.90;;;;;;5052013;28;20051;-63
2023/01/19 01:35:12;;;;;;;8.68;1.80;;;6.90;92.30;;;;;;5051856;28;20124;-63
2023/01/19 01:37:38;;;;;;;8.25;1.73;;;6.50;1.00;;;;;;5050381;28;20044;-63
2023/01/19 01:40:05;;;;;;;11.93;2.42;;;7.00;99.90;;;;;;5051618;28;20048;-62
2023/01/19 01:42:32;;;;;;;11.13;1.88;;;6.90;99.90;;;;;;5050911;28;20039;-62
2023/01/19 01:45:00;;;;;;;9.38;1.75;;;7.10;99.90;;;;;;5041143;28;20097;-62
2023/01/19 01:47:32;;;;;;;9.40;1.95;;;7.00;99.90;;;;;;5044618;28;20041;-62
2023/01/19 01:50:15;;;;;;;13.27;2.60;;;7.20;80.70;;;;;;5051767;28;20033;-62
2023/01/19 01:53:00;;;;;;;16.45;2.70;;;7.30;32.90;;;;;;5050292;28;20123;-62
2023/01/19 01:55:27;;;;;;;10.98;2.15;;;7.40;11.90;;;;;;5053268;28;20033;-62
2023/01/19 01:58:00;;;;;;;6.22;1.35;;;7.30;1.00;;;;;;5052951;28;20478;-63
2023/01/19 02:00:26;;;;;;;10.18;3.00;;;7.00;1.00;;;;;;5053327;28;20091;-62
2023/01/19 02:02:55;;;;;;;13.93;1.83;;;7.40;1.00;;;;;;5054096;28;20048;-63
2023/01/19 02:05:28;;;;;;;7.28;2.03;;;7.20;1.00;;;;;;5054872;28;20386;-62
2023/01/19 02:13:42;;;;;;;12.65;2.30;;;7.30;99.90;;;;;;5036627;28;20491;-62
2023/01/19 02:16:09;;;;;;;9.70;1.85;;;7.40;99.90;;;;;;5036651;28;20060;-62
2023/01/19 02:18:36;;;;;;;9.27;2.80;;;7.30;99.90;;;;;;5054998;28;20033;-62
2023/01/19 02:21:29;;;;;;;15.30;2.45;;;7.30;40.50;;;;;;5053443;28;20122;-62
2023/01/19 02:23:57;;;;;;;11.73;2.50;;;7.50;1.00;;;;;;5054159;28;20072;-62
2023/01/19 02:26:28;;;;;;;13.77;2.78;;;7.30;1.00;;;;;;5053387;28;20374;-62
2023/01/19 02:28:58;;;;;;;11.30;2.38;;;7.50;1.00;;;;;;5044803;28;20053;-62
2023/01/19 02:31:25;;;;;;;7.88;1.83;;;7.40;1.00;;;;;;5046935;28;20084;-62
2023/01/19 02:33:51;;;;;;;14.93;2.67;;;7.30;99.90;;;;;;5037822;28;20037;-62
2023/01/19 02:36:21;;;;;;;9.45;2.30;;;7.30;99.90;;;;;;5039653;28;20045;-62
2023/01/19 02:38:48;;;;;;;13.20;2.92;;;7.40;99.90;;;;;;5042741;28;20051;-62
2023/01/19 02:41:18;;;;;;;12.25;2.58;;;7.40;99.90;;;;;;5053602;28;20056;-62
2023/01/19 02:43:46;;;;;;;16.85;2.78;;;7.20;99.90;;;;;;5052648;28;20045;-62
2023/01/19 02:46:14;;;;;;;16.50;3.55;;;7.30;90.70;;;;;;5047214;28;20041;-62
2023/01/19 02:48:40;;;;;;;11.05;2.90;;;7.30;95.50;;;;;;5053655;28;20128;-62
2023/01/19 02:51:21;;;;;;;16.17;2.88;;;7.20;99.90;;;;;;5052672;28;20037;-62
2023/01/19 02:54:08;;;;;;;27.38;4.45;;;7.40;99.90;;;;;;5043388;28;20144;-62
2023/01/19 02:56:55;;;;;;;22.65;4.82;;;7.60;95.40;;;;;;5051415;28;20037;-61
2023/01/19 02:59:30;;;;;;;17.60;3.47;;;7.60;9.30;;;;;;5052297;28;20144;-62
2023/01/19 03:02:04;;;;;;;13.93;2.53;;;7.60;1.00;;;;;;5054483;28;20043;-61
2023/01/19 03:05:05;;;;;;;14.63;2.50;;;7.50;1.00;;;;;;5046533;28;20111;-62
2023/01/19 03:08:06;;;;;;;14.18;3.10;;;7.30;99.90;;;;;;5049291;28;20063;-62
2023/01/19 03:10:43;;;;;;;18.17;2.90;;;7.30;99.90;;;;;;5050255;28;20161;-62
2023/01/19 03:13:36;;;;;;;19.45;3.30;;;7.20;99.90;;;;;;5038488;28;20033;-62
2023/01/19 03:16:13;;;;;;;9.50;2.25;;;7.20;99.90;;;;;;5052596;28;20032;-62
2023/01/19 03:18:42;;;;;;;11.10;3.25;;;7.40;99.90;;;;;;5053799;28;20048;-62
2023/01/19 03:21:10;;;;;;;20.33;2.78;;;7.50;99.90;;;;;;5053916;28;20037;-62
2023/01/19 03:23:40;;;;;;;12.63;2.47;;;7.60;99.90;;;;;;5041037;28;20503;-62
2023/01/19 03:26:09;;;;;;;13.57;2.95;;;7.60;99.90;;;;;;5036187;28;20041;-62
2023/01/19 03:28:38;;;;;;;21.17;2.70;;;7.70;99.90;;;;;;5051962;28;20579;-62
2023/01/19 03:31:10;;;;;;;6.78;2.03;;;7.60;99.90;;;;;;5053442;28;20029;-62
2023/01/19 03:33:39;;;;;;;8.57;2.03;;;7.80;99.90;;;;;;5053463;28;20477;-62
2023/01/19 03:36:11;;;;;;;10.57;2.83;;;7.60;99.90;;;;;;5036306;28;20103;-67
2023/01/19 03:38:40;;;;;;;13.45;2.55;;;7.80;99.90;;;;;;5067357;28;20041;-66
2023/01/19 03:41:10;;;;;;;10.02;2.03;;;7.60;99.90;;;;;;5052472;28;20037;-65
2023/01/19 03:43:37;;;;;;;9.73;2.58;;;7.70;99.90;;;;;;5052132;28;20052;-65
2023/01/19 03:46:04;;;;;;;10.98;1.50;;;7.50;99.90;;;;;;5050517;28;20081;-63
2023/01/19 03:48:31;;;;;;;7.93;1.52;;;7.50;99.90;;;;;;5051543;28;20036;-62
2023/01/19 03:50:57;;;;;;;5.20;1.50;;;7.20;99.90;;;;;;5053466;28;20048;-63
2023/01/19 03:53:22;;;;;;;5.68;1.35;;;7.30;95.80;;;;;;5040653;28;20041;-65
2023/01/19 03:55:50;;;;;;;2.88;1.20;;;7.30;75.40;;;;;;5045595;28;20067;-65
2023/01/19 03:58:16;;;;;;;6.88;1.90;;;7.10;57.00;;;;;;5015654;28;20094;-63
2023/01/19 04:00:42;;;;;;;6.90;2.03;;;7.10;54.50;;;;;;5032383;28;20060;-66
2023/01/19 04:03:14;;;;;;;14.60;2.05;;;7.10;59.10;;;;;;5031940;28;20038;-67
2023/01/19 04:05:39;;;;;;;11.10;2.17;;;7.20;72.10;;;;;;5048127;28;20041;-64
2023/01/19 04:08:05;;;;;;;15.48;2.33;;;7.00;87.20;;;;;;5049418;28;20045;-64
2023/01/19 04:10:31;;;;;;;15.20;3.17;;;7.00;97.90;;;;;;5035145;28;20422;-65
2023/01/19 04:12:58;;;;;;;14.00;2.80;;;7.00;99.90;;;;;;5051634;28;20037;-65
2023/01/19 04:15:24;;;;;;;12.43;2.53;;;7.10;99.90;;;;;;5045149;28;20450;-63
2023/01/19 04:17:50;;;;;;;14.48;2.80;;;7.10;99.90;;;;;;5048886;28;20406;-63
2023/01/19 04:20:15;;;;;;;13.07;2.47;;;7.20;99.90;;;;;;5051469;28;20043;-64
2023/01/19 04:22:41;;;;;;;16.50;2.83;;;7.20;99.90;;;;;;5044286;28;20034;-64
2023/01/19 04:25:08;;;;;;;15.50;2.80;;;7.20;99.90;;;;;;5031274;28;20041;-64
2023/01/19 04:27:34;;;;;;;9.27;2.33;;;7.00;99.90;;;;;;5046195;28;20115;-66
2023/01/19 04:29:59;;;;;;;13.85;2.55;;;7.00;99.90;;;;;;5050541;28;20033;-66
2023/01/19 04:32:25;;;;;;;15.30;2.80;;;7.10;79.50;;;;;;5051093;28;20102;-65
2023/01/19 04:34:50;;;;;;;13.90;3.13;;;7.20;17.40;;;;;;5051161;28;20556;-66
2023/01/19 04:37:16;;;;;;;13.50;2.75;;;7.40;1.00;;;;;;5068196;28;20203;-64
2023/01/19 04:39:42;;;;;;;22.27;4.05;;;7.30;1.00;;;;;;5033842;28;20048;-66
2023/01/19 04:42:07;;;;;;;18.30;3.33;;;7.40;1.00;;;;;;5051326;28;20553;-66
2023/01/19 04:44:33;;;;;;;21.77;3.72;;;7.50;1.00;;;;;;5050460;28;20449;-65
2023/01/19 04:46:58;;;;;;;15.65;3.17;;;7.50;1.00;;;;;;5049112;28;20052;-67
2023/01/19 04:49:24;;;;;;;17.10;3.58;;;7.50;1.00;;;;;;5050613;28;20037;-65
2023/01/19 04:51:52;;;;;;;19.58;3.53;;;7.50;1.00;;;;;;5034325;28;20040;-67
2023/01/19 04:54:18;;;;;;;23.17;3.80;;;7.40;1.00;;;;;;5034099;28;20166;-67
2023/01/19 04:56:44;;;;;;;19.17;4.20;;;7.50;1.00;;;;;;5034241;28;20119;-66
2023/01/19 04:59:09;;;;;;;29.15;4.55;;;7.50;1.00;;;;;;5048759;28;20064;-67
2023/01/19 05:01:35;;;;;;;19.33;3.20;;;7.40;1.00;;;;;;5033168;28;20120;-66
2023/01/19 05:04:03;;;;;;;16.13;3.67;;;7.50;1.00;;;;;;5030958;28;20053;-65
2023/01/19 05:06:29;;;;;;;14.73;2.22;;;7.50;1.00;;;;;;5051143;28;20084;-63
2023/01/19 05:08:55;;;;;;;14.32;3.65;;;7.30;1.00;;;;;;5031086;28;20095;-65
2023/01/19 05:11:20;;;;;;;16.08;3.13;;;7.30;1.00;;;;;;5039393;28;20037;-67
2023/01/19 05:13:46;;;;;;;11.23;1.98;;;7.10;1.00;;;;;;5050021;28;20075;-65
2023/01/19 05:16:12;;;;;;;7.38;1.80;;;7.20;1.00;;;;;;5031548;28;20037;-66
2023/01/19 05:18:38;;;;;;;9.93;2.25;;;7.20;1.00;;;;;;5050678;28;20048;-66
2023/01/19 05:21:05;;;;;;;12.68;2.38;;;7.00;1.00;;;;;;5051004;28;20552;-67
2023/01/19 05:23:31;;;;;;;13.88;2.20;;;7.00;1.00;;;;;;5033545;28;20048;-67
2023/01/19 05:26:00;;;;;;;12.98;2.00;;;7.00;1.00;;;;;;5044370;28;20279;-67
2023/01/19 05:28:31;;;;;;;9.70;2.40;;;6.90;1.00;;;;;;5052724;28;20080;-68
2023/01/19 05:30:57;;;;;;;13.63;2.92;;;7.00;1.00;;;;;;5047699;28;20090;-68
2023/01/19 05:33:24;;;;;;;11.38;2.65;;;7.10;1.00;;;;;;5042667;28;20037;-68
2023/01/19 05:35:50;;;;;;;13.20;3.17;;;7.20;1.00;;;;;;5018402;28;20491;-68
2023/01/19 05:38:17;;;;;;;17.02;3.35;;;7.10;1.00;;;;;;5051028;28;20029;-66
2023/01/19 05:40:42;;;;;;;17.48;3.45;;;7.00;1.00;;;;;;5021014;28;20111;-66
2023/01/19 05:43:08;;;;;;;22.38;3.42;;;7.10;1.00;;;;;;5054454;28;20517;-66
2023/01/19 05:45:33;;;;;;;16.55;3.33;;;7.20;1.00;;;;;;5053354;28;20041;-67
2023/01/19 05:47:59;;;;;;;22.25;4.28;;;7.20;1.00;;;;;;5054227;28;20065;-68
2023/01/19 05:50:25;;;;;;;18.48;3.33;;;7.20;1.00;;;;;;5071038;28;20048;-67
2023/01/19 05:52:54;;;;;;;25.02;3.63;;;7.10;1.00;;;;;;5049560;28;20659;-67
2023/01/19 05:55:20;;;;;;;22.25;3.97;;;7.30;1.00;;;;;;5054077;28;20397;-67
2023/01/19 05:57:45;;;;;;;25.80;3.50;;;7.20;1.00;;;;;;5053996;28;20048;-68
2023/01/19 06:00:12;;;;;;;28.17;4.25;;;7.10;1.00;;;;;;5053254;28;20045;-69
2023/01/19 06:02:37;;;;;;;26.33;3.75;;;7.30;1.00;;;;;;5039147;28;20040;-67
2023/01/19 06:05:03;;;;;;;20.92;4.10;;;7.20;1.00;;;;;;5052539;28;20041;-67
2023/01/19 06:07:30;;;;;;;25.63;3.95;;;7.20;1.00;;;;;;5036357;28;20060;-68
2023/01/19 06:09:56;;;;;;;19.70;3.70;;;7.20;1.00;;;;;;5054167;28;20513;-66
2023/01/19 06:12:22;;;;;;;14.73;2.53;;;7.20;1.00;;;;;;5054312;28;20041;-67
2023/01/19 06:14:47;;;;;;;19.65;3.03;;;7.30;99.90;;;;;;5052192;28;20048;-67
2023/01/19 06:17:13;;;;;;;15.90;4.10;;;7.20;99.90;;;;;;5043962;28;20178;-68
2023/01/19 06:19:39;;;;;;;27.90;3.80;;;7.10;99.90;;;;;;5034565;28;20038;-67
2023/01/19 06:22:05;;;;;;;15.45;3.28;;;7.10;99.90;;;;;;5054040;28;20076;-68
2023/01/19 06:24:31;;;;;;;20.83;2.75;;;7.00;99.90;;;;;;5052737;28;20094;-68
2023/01/19 06:26:59;;;;;;;17.58;3.50;;;7.10;99.90;;;;;;5052253;28;20055;-69
2023/01/19 06:29:26;;;;;;;19.58;3.38;;;7.10;99.90;;;;;;5052605;28;20550;-69
2023/01/19 06:31:52;;;;;;;26.55;3.80;;;7.10;99.90;;;;;;5053114;28;20041;-69
2023/01/19 06:34:18;;;;;;;19.48;3.25;;;7.10;99.90;;;;;;5053494;28;20044;-68
2023/01/19 06:36:45;;;;;;;18.33;3.45;;;7.10;99.90;;;;;;5053440;28;20045;-67
2023/01/19 06:39:10;;;;;;;21.17;3.72;;;7.20;99.90;;;;;;5052417;28;20033;-67
2023/01/19 06:41:36;;;;;;;15.02;3.13;;;7.20;99.90;;;;;;5052816;28;20040;-66
2023/01/19 06:44:02;;;;;;;15.38;3.92;;;7.30;99.90;;;;;;5052805;28;22169;-67
2023/01/19 06:46:28;;;;;;;24.30;3.50;;;7.20;99.90;;;;;;5034183;28;20507;-67
2023/01/19 06:48:54;;;;;;;18.40;3.83;;;7.20;99.90;;;;;;5035640;28;20037;-67
2023/01/19 06:51:20;;;;;;;17.98;3.80;;;7.10;99.90;;;;;;5035778;28;20444;-67
2023/01/19 06:53:45;;;;;;;19.45;3.33;;;7.10;99.90;;;;;;5045423;28;20075;-69
2023/01/19 06:56:11;;;;;;;22.65;3.53;;;7.10;99.90;;;;;;5032859;28;20042;-70
2023/01/19 06:58:37;;;;;;;19.67;3.25;;;6.90;99.90;;;;;;5030519;28;20045;-69
2023/01/19 07:01:06;;;;;;;16.50;3.25;;;6.90;99.90;;;;;;5046278;28;20454;-70
2023/01/19 07:03:33;;;;;;;18.92;3.38;;;6.90;99.90;;;;;;5026396;28;20578;-69
2023/01/19 07:06:01;;;;;;;16.52;3.22;;;6.80;99.90;;;;;;5044302;28;20049;-68
2023/01/19 07:08:27;;;;;;;17.50;3.28;;;6.70;99.90;;;;;;5040988;28;20530;-69
2023/01/19 07:11:01;;;;;;;12.93;3.03;;;6.80;99.90;;;;;;5026091;28;20029;-68
2023/01/19 07:13:27;;;;;;;13.30;2.95;;;6.90;99.90;;;;;;5050925;28;20036;-68
2023/01/19 07:15:53;;;;;;;15.13;3.00;;;6.90;99.90;;;;;;5049537;28;20071;-71
2023/01/19 07:18:18;;;;;;;18.60;2.85;;;6.90;99.90;;;;;;5064402;28;20076;-67
2023/01/19 07:20:45;;;;;;;24.27;4.28;;;7.00;99.90;;;;;;5042653;28;20029;-67
2023/01/19 07:23:11;;;;;;;18.30;3.53;;;7.00;99.90;;;;;;5027255;28;20033;-67
2023/01/19 07:25:37;;;;;;;17.17;3.63;;;7.00;99.90;;;;;;5040636;28;20088;-68
2023/01/19 07:28:03;;;;;;;23.90;4.03;;;7.00;99.90;;;;;;5060021;28;20418;-68
2023/01/19 07:30:28;;;;;;;20.50;4.28;;;7.20;99.90;;;;;;5025917;28;20116;-67
2023/01/19 07:32:56;;;;;;;26.98;3.83;;;6.90;99.90;;;;;;5037813;28;20471;-67
2023/01/19 07:35:22;;;;;;;18.23;3.53;;;6.80;99.90;;;;;;5039385;28;20098;-68
2023/01/19 07:37:48;;;;;;;24.73;4.18;;;6.80;99.90;;;;;;5043264;28;20028;-68
2023/01/19 07:40:13;;;;;;;20.73;3.58;;;6.90;99.90;;;;;;5028763;28;20402;-68
2023/01/19 07:42:39;;;;;;;24.73;4.53;;;6.90;99.90;;;;;;5035526;28;20049;-68
2023/01/19 07:45:05;;;;;;;21.50;3.85;;;6.80;99.90;;;;;;5041536;28;20044;-68
2023/01/19 07:47:31;;;;;;;18.02;3.47;;;6.80;99.90;;;;;;5021860;28;20045;-68
2023/01/19 07:49:56;;;;;;;21.92;4.13;;;6.70;99.90;;;;;;5027167;28;20041;-66
2023/01/19 07:52:22;;;;;;;15.15;3.58;;;6.70;99.90;;;;;;5066399;28;20086;-68
2023/01/19 07:54:49;;;;;;;15.95;3.20;;;6.60;99.90;;;;;;5049107;28;20079;-67
2023/01/19 07:57:16;;;;;;;21.33;3.13;;;6.50;99.90;;;;;;5051375;28;20044;-67
2023/01/19 07:59:41;;;;;;;20.00;3.85;;;6.70;99.90;;;;;;5049572;28;20485;-67
2023/01/19 08:02:09;;;;;;;16.02;3.45;;;6.60;99.90;;;;;;5047775;28;20044;-68
2023/01/19 08:04:35;;;;;;;14.88;3.08;;;6.60;99.90;;;;;;5049019;28;20402;-68
2023/01/19 08:07:00;;;;;;;16.48;3.20;;;6.50;99.90;;;;;;5051394;28;20052;-68
2023/01/19 08:09:26;;;;;;;16.50;2.97;;;6.50;99.90;;;;;;5045024;28;20527;-68
2023/01/19 08:11:52;;;;;;;13.63;3.17;;;6.50;99.90;;;;;;5021404;28;20040;-68
2023/01/19 08:14:17;;;;;;;12.88;3.00;;;6.60;99.90;;;;;;5042354;28;20115;-71
2023/01/19 08:16:43;;;;;;;14.63;2.60;;;6.60;99.90;;;;;;5046361;28;20051;-68
2023/01/19 08:19:09;;;;;;;14.93;3.20;;;6.50;99.90;;;;;;5033301;28;20040;-69
2023/01/19 08:21:37;;;;;;;21.77;3.47;;;6.60;99.90;;;;;;5042676;28;20056;-70
2023/01/19 08:24:02;;;;;;;16.08;2.75;;;6.50;99.90;;;;;;5033047;28;20041;-69
2023/01/19 08:26:31;;;;;;;16.63;2.90;;;6.50;99.90;;;;;;5042058;28;20082;-69
2023/01/19 08:28:59;;;;;;;14.70;3.25;;;6.50;99.90;;;;;;5045966;28;20124;-68
2023/01/19 08:31:25;;;;;;;14.07;3.20;;;6.50;99.90;;;;;;5023536;28;20044;-66
2023/01/19 08:33:51;;;;;;;19.08;2.90;;;6.50;99.90;;;;;;5044543;28;20393;-67
2023/01/19 08:36:17;;;;;;;16.50;3.45;;;6.50;99.90;;;;;;5046951;28;20128;-62
2023/01/19 08:38:44;;;;;;;16.05;3.22;;;6.60;99.90;;;;;;5052223;28;20072;-61
2023/01/19 08:41:10;;;;;;;25.30;3.90;;;6.60;99.90;;;;;;5039589;28;20450;-61
2023/01/19 08:43:36;;;;;;;21.05;3.47;;;6.50;99.90;;;;;;5043585;28;20037;-61
2023/01/19 08:46:03;;;;;;;22.55;4.03;;;6.70;99.90;;;;;;5048755;28;20037;-63
2023/01/19 08:48:29;;;;;;;17.77;3.40;;;6.60;99.90;;;;;;5044609;28;20041;-61
2023/01/19 08:50:54;;;;;;;19.73;3.83;;;6.70;99.90;;;;;;5045561;28;20052;-61
2023/01/19 08:53:22;;;;;;;22.05;4.00;;;6.80;99.90;;;;;;5041176;28;20103;-61
2023/01/19 08:55:48;;;;;;;18.00;3.10;;;6.80;99.90;;;;;;5040608;28;20033;-61
2023/01/19 08:58:14;;;;;;;15.38;3.28;;;6.80;99.90;;;;;;5043478;28;20048;-61
2023/01/19 09:00:40;;;;;;;19.92;4.22;;;6.80;99.90;;;;;;5040760;28;20242;-61
2023/01/19 09:03:07;;;;;;;15.27;3.38;;;6.90;99.90;;;;;;5040642;28;20041;-61
2023/01/19 09:05:37;;;;;;;16.15;2.95;;;6.90;99.90;;;;;;5044294;28;20032;-61
2023/01/19 09:08:08;;;;;;;11.18;2.97;;;6.80;99.90;;;;;;5048046;28;20045;-61
2023/01/19 09:10:36;;;;;;;17.55;2.60;;;6.80;99.90;;;;;;5048290;28;20041;-61
2023/01/19 09:13:04;;;;;;;17.98;3.20;;;6.80;99.50;;;;;;5047306;28;20525;-61
2023/01/19 09:15:32;;;;;;;11.82;2.70;;;6.80;97.10;;;;;;5049390;28;20037;-61
2023/01/19 09:17:58;;;;;;;15.27;3.10;;;6.90;94.10;;;;;;5042127;28;20052;-61
2023/01/19 09:20:24;;;;;;;14.88;3.25;;;6.90;93.80;;;;;;5048463;28;20037;-61
2023/01/19 09:22:50;;;;;;;13.20;3.10;;;6.80;92.20;;;;;;5048652;28;20409;-61
2023/01/19 09:25:15;;;;;;;12.98;2.78;;;6.70;83.70;;;;;;5037256;28;20473;-61
2023/01/19 09:27:41;;;;;;;10.50;2.90;;;6.80;85.10;;;;;;5050631;28;20048;-61
2023/01/19 09:30:10;;;;;;;11.38;2.40;;;6.70;70.30;;;;;;5051088;28;20111;-61
2023/01/19 09:32:35;;;;;;;18.13;2.97;;;6.70;56.70;;;;;;5043253;28;20033;-61
2023/01/19 09:35:01;;;;;;;16.70;3.28;;;6.70;48.50;;;;;;5046676;28;20048;-61
2023/01/19 09:37:26;;;;;;;14.80;3.13;;;6.70;47.60;;;;;;5050628;28;20427;-61
2023/01/19 09:39:52;;;;;;;13.52;3.22;;;6.80;43.30;;;;;;5046399;28;20395;-61
2023/01/19 09:42:37;;;;;;;12.52;2.85;;;6.90;41.90;;;;;;5042491;28;20475;-61
2023/01/19 09:45:28;;;;;;;19.60;3.65;;;7.00;42.20;;;;;;5041137;28;20037;-61
2023/01/19 09:47:55;;;;;;;14.55;3.25;;;7.00;45.10;;;;;;5050140;28;20547;-61
2023/01/19 09:50:30;;;;;;;15.57;2.70;;;7.10;50.90;;;;;;5045621;28;20040;-61
2023/01/19 09:53:03;;;;;;;14.95;2.47;;;7.10;51.80;;;;;;5046406;28;20610;-61
2023/01/19 09:55:29;;;;;;;16.25;2.58;;;7.10;49.00;;;;;;5040652;28;20046;-61
2023/01/19 09:57:55;;;;;;;17.63;2.80;;;7.10;36.10;;;;;;5034248;28;20636;-62
2023/01/19 10:00:23;;;;;;;15.13;2.92;;;7.10;28.60;;;;;;5035722;28;20249;-61
2023/01/19 10:03:11;;;;;;;14.35;2.67;;;7.10;24.70;;;;;;5047893;28;20037;-61
2023/01/19 10:05:57;;;;;;;19.45;3.00;;;7.00;26.00;;;;;;5045124;28;20044;-61
2023/01/19 10:08:38;;;;;;;16.70;3.13;;;7.00;31.90;;;;;;5043485;28;20037;-61
2023/01/19 10:11:18;;;;;;;13.25;2.60;;;7.00;35.40;;;;;;5038601;28;20647;-61
2023/01/19 10:13:50;;;;;;;13.57;2.65;;;7.10;29.50;;;;;;5049281;28;20036;-62
2023/01/19 10:16:47;;;;;;;12.45;2.83;;;7.10;25.90;;;;;;5048202;28;20041;-62
2023/01/19 10:19:29;;;;;;;10.23;1.98;;;7.10;17.00;;;;;;5051116;28;20116;-62
2023/01/19 10:21:59;;;;;;;14.95;3.05;;;7.20;13.60;;;;;;5046578;28;20037;-62
2023/01/19 10:24:31;;;;;;;8.45;2.50;;;7.20;14.20;;;;;;5039036;28;20130;-62
2023/01/19 10:26:57;;;;;;;16.73;3.00;;;7.20;8.80;;;;;;5045577;28;20068;-62
2023/01/19 10:29:23;;;;;;;20.58;3.25;;;7.30;12.40;;;;;;5056351;28;20426;-62
2023/01/19 10:31:51;;;;;;;14.20;3.42;;;7.30;14.30;;;;;;5046039;28;20590;-61
2023/01/19 10:34:18;;;;;;;21.98;3.25;;;7.40;19.60;;;;;;5039104;28;20029;-62
2023/01/19 10:36:47;;;;;;;17.27;2.90;;;7.50;14.60;;;;;;5047033;28;20491;-62
2023/01/19 10:39:15;;;;;;;14.48;2.88;;;7.60;11.10;;;;;;5043380;28;20551;-62
2023/01/19 10:41:42;;;;;;;13.70;2.70;;;7.60;12.00;;;;;;5040672;28;20253;-62
2023/01/19 10:44:09;;;;;;;12.60;2.88;;;7.60;9.60;;;;;;5037380;28;20090;-61
2023/01/19 10:46:46;;;;;;;12.80;2.53;;;7.50;6.40;;;;;;5042150;28;20496;-61
2023/01/19 10:49:27;;;;;;;15.57;2.38;;;7.40;4.80;;;;;;5031575;28;20045;-61
2023/01/19 10:51:55;;;;;;;18.20;4.03;;;7.40;10.40;;;;;;5051597;28;20510;-62
2023/01/19 10:54:22;;;;;;;14.80;2.75;;;7.40;10.90;;;;;;5045145;28;20115;-61
2023/01/19 10:56:57;;;;;;;12.07;2.38;;;7.40;5.50;;;;;;5038469;28;20048;-61
2023/01/19 10:59:45;;;;;;;9.13;2.20;;;7.50;2.10;;;;;;5049077;28;20051;-61
2023/01/19 11:02:30;;;;;;;13.85;2.03;;;7.40;1.00;;;;;;5040516;28;20044;-62
2023/01/19 11:04:58;;;;;;;10.55;2.08;;;7.40;1.00;;;;;;5051960;28;20037;-61
2023/01/19 11:07:32;;;;;;;8.18;1.92;;;7.40;1.00;;;;;;5054159;28;20053;-61
2023/01/19 11:10:16;;;;;;;8.85;2.00;;;7.30;1.00;;;;;;5047273;28;20038;-61
2023/01/19 11:12:45;;;;;;;12.18;2.03;;;7.30;1.00;;;;;;5057712;28;20045;-61
2023/01/19 11:15:23;;;;;;;12.13;2.40;;;7.20;1.00;;;;;;5047059;28;20044;-61
2023/01/19 11:17:49;;;;;;;10.98;2.20;;;7.10;1.00;;;;;;5050790;28;20150;-61
2023/01/19 11:20:48;;;;;;;11.02;2.10;;;7.10;1.00;;;;;;5047396;28;20033;-61
2023/01/19 11:23:14;;;;;;;11.80;2.30;;;7.10;1.00;;;;;;5031957;28;20076;-61
2023/01/19 11:25:39;;;;;;;15.18;2.35;;;7.10;1.00;;;;;;5050288;28;20045;-61
2023/01/19 11:28:13;;;;;;;8.68;1.90;;;7.00;1.00;;;;;;5053879;28;20037;-60
2023/01/19 11:30:57;;;;;;;10.43;1.80;;;7.00;1.00;;;;;;5039793;28;20509;-60
2023/01/19 11:33:39;;;;;;;7.95;1.80;;;6.90;1.00;;;;;;5040918;28;20038;-61
2023/01/19 11:36:14;;;;;;;8.13;2.00;;;6.90;1.00;;;;;;5040808;28;20037;-60
2023/01/19 11:38:44;;;;;;;9.98;2.35;;;6.90;1.00;;;;;;5046344;28;20509;-60
2023/01/19 11:41:32;;;;;;;9.55;2.10;;;6.80;1.00;;;;;;5042392;28;20040;-61
2023/01/19 11:44:01;;;;;;;10.32;2.15;;;6.80;1.00;;;;;;5042992;28;20029;-61
2023/01/19 11:46:32;;;;;;;12.27;2.25;;;6.80;1.00;;;;;;5040898;28;20470;-61
2023/01/19 11:49:07;;;;;;;9.88;2.42;;;6.80;1.00;;;;;;5044609;28;20037;-61
2023/01/19 11:51:51;;;;;;;12.05;2.40;;;6.80;1.00;;;;;;5047034;28;20539;-61
2023/01/19 11:54:26;;;;;;;11.50;2.50;;;6.70;1.00;;;;;;5044357;28;20063;-61
2023/01/19 11:56:53;;;;;;;12.40;2.30;;;6.70;1.00;;;;;;5050259;28;20052;-60
2023/01/19 11:59:21;;;;;;;10.07;2.53;;;6.60;1.00;;;;;;5052740;28;20030;-61
2023/01/19 12:01:55;;;;;;;13.50;2.25;;;6.60;1.00;;;;;;5043718;28;20045;-60
2023/01/19 12:04:36;;;;;;;9.25;2.28;;;6.50;1.00;;;;;;5045764;28;20049;-61
2023/01/19 12:07:06;;;;;;;10.70;2.05;;;6.50;1.00;;;;;;5046583;28;20056;-60
2023/01/19 12:09:46;;;;;;;11.45;2.35;;;6.50;1.00;;;;;;5052094;28;20052;-60
2023/01/19 12:12:29;;;;;;;8.10;2.05;;;6.50;1.00;;;;;;5049464;28;20076;-60
2023/01/19 12:14:58;;;;;;;15.65;2.63;;;6.50;1.00;;;;;;5043042;28;20048;-60
2023/01/19 12:17:28;;;;;;;12.75;2.13;;;6.50;1.00;;;;;;5047736;28;20139;-60
2023/01/19 12:20:25;;;;;;;5.47;1.65;;;6.50;1.00;;;;;;5043862;28;20040;-61
2023/01/19 12:23:00;;;;;;;11.50;2.33;;;6.50;1.00;;;;;;5041349;28;20049;-60
2023/01/19 12:25:40;;;;;;;13.38;2.40;;;6.50;1.00;;;;;;5047094;28;20419;-60
2023/01/19 12:28:11;;;;;;;11.45;2.20;;;6.50;1.00;;;;;;5046476;28;20066;-60
2023/01/19 12:30:37;;;;;;;8.15;1.70;;;6.60;1.00;;;;;;5045871;28;20033;-60
2023/01/19 12:33:33;;;;;;;9.13;1.92;;;6.40;1.00;;;;;;5042047;28;20032;-60
2023/01/19 12:36:37;;;;;;;9.95;2.30;;;6.30;1.00;;;;;;5044261;28;20037;-60
2023/01/19 12:39:19;;;;;;;12.05;2.28;;;6.30;1.00;;;;;;5033160;28;20106;-60
2023/01/19 12:41:46;;;;;;;10.13;2.65;;;6.20;1.00;;;;;;5040012;28;20368;-60
2023/01/19 12:46:45;;;;;;;8.88;2.60;;;6.00;1.00;;;;;;5047978;28;20049;-61
2023/01/19 12:49:30;;;;;;;12.20;2.58;;;6.20;1.00;;;;;;5045930;28;20064;-61
2023/01/19 12:52:26;;;;;;;13.02;2.88;;;6.30;1.00;;;;;;5045127;28;20029;-60
2023/01/19 12:55:02;;;;;;;16.42;2.67;;;6.50;8.20;;;;;;5044298;28;20045;-60
2023/01/19 12:57:36;;;;;;;13.73;2.47;;;6.60;13.50;;;;;;5044610;28;20060;-61
2023/01/19 13:00:27;;;;;;;10.00;2.30;;;6.80;12.60;;;;;;5041604;28;20037;-60
2023/01/19 13:02:57;;;;;;;10.40;2.00;;;6.90;10.20;;;;;;5044917;28;20486;-60
2023/01/19 13:05:29;;;;;;;12.85;2.67;;;6.90;1.00;;;;;;5045647;28;20041;-60
2023/01/19 13:08:00;;;;;;;9.23;2.08;;;7.00;1.00;;;;;;5049611;28;20506;-61
2023/01/19 13:10:54;;;;;;;5.10;1.55;;;6.90;1.00;;;;;;5049045;28;20129;-60
2023/01/19 13:13:24;;;;;;;8.75;1.77;;;6.90;1.00;;;;;;5038880;28;20041;-61
2023/01/19 13:15:50;;;;;;;9.75;1.90;;;6.80;1.00;;;;;;5046146;28;20048;-61